createdAt,value
2019-03-20T00:00:27.696Z,81.30
2019-03-20T00:02:57.211Z,81.30
2019-03-20T00:05:26.483Z,81.60
2019-03-20T00:07:55.751Z,81.60
2019-03-20T00:10:25.014Z,82.00
2019-03-20T00:12:54.285Z,82.10
2019-03-20T00:15:23.541Z,82.20
2019-03-20T00:17:52.809Z,82.30
2019-03-20T00:20:22.073Z,82.30
2019-03-20T00:22:51.342Z,82.20
2019-03-20T00:25:20.605Z,82.20
2019-03-20T00:27:50.632Z,82.80
2019-03-20T00:30:20.561Z,82.90
2019-03-20T00:32:49.845Z,82.90
2019-03-20T00:35:19.205Z,82.90
2019-03-20T00:37:48.540Z,83.20
2019-03-20T00:40:18.438Z,83.10
2019-03-20T00:42:47.860Z,83.10
2019-03-20T00:45:21.391Z,83.00
2019-03-20T00:47:50.649Z,83.10
2019-03-20T00:50:20.557Z,82.90
2019-03-20T00:52:49.827Z,82.90
2019-03-20T00:55:19.951Z,82.60
2019-03-20T00:57:49.351Z,82.10
2019-03-20T01:00:23.306Z,81.80
2019-03-20T01:02:52.638Z,81.90
2019-03-20T01:05:22.003Z,82.00
2019-03-20T01:07:51.267Z,82.30
2019-03-20T01:10:21.578Z,82.40
2019-03-20T01:12:51.177Z,82.40
2019-03-20T01:15:20.515Z,82.50
2019-03-20T01:17:49.771Z,82.90
2019-03-20T01:20:21.253Z,82.90
2019-03-20T01:22:50.595Z,82.80
2019-03-20T01:25:20.234Z,82.50
2019-03-20T01:27:49.494Z,82.70
2019-03-20T01:30:34.042Z,82.40
2019-03-20T01:33:05.717Z,82.50
2019-03-20T01:35:34.995Z,82.70
2019-03-20T01:41:13.855Z,82.70
2019-03-20T01:43:43.165Z,82.70
2019-03-20T01:46:12.466Z,82.70
2019-03-20T01:48:41.771Z,82.50
2019-03-20T01:51:22.047Z,82.70
2019-03-20T01:53:51.378Z,82.70
2019-03-20T01:56:20.687Z,82.40
2019-03-20T01:58:51.039Z,82.30
2019-03-20T02:01:21.466Z,82.50
2019-03-20T02:03:50.771Z,83.00
2019-03-20T02:06:20.078Z,82.50
2019-03-20T02:08:49.379Z,82.80
2019-03-20T02:11:18.669Z,83.10
2019-03-20T02:13:47.986Z,83.30
2019-03-20T02:16:17.331Z,83.00
2019-03-20T02:18:46.656Z,82.90
2019-03-20T02:21:15.954Z,82.80
2019-03-20T02:23:45.252Z,82.90
2019-03-20T02:26:14.540Z,82.90
2019-03-20T02:28:43.858Z,82.70
2019-03-20T02:31:13.140Z,83.10
2019-03-20T02:33:42.455Z,83.30
2019-03-20T02:36:11.752Z,83.30
2019-03-20T02:38:41.284Z,83.70
2019-03-20T02:41:10.584Z,83.50
2019-03-20T02:43:39.950Z,83.70
2019-03-20T02:46:09.246Z,83.80
2019-03-20T02:48:38.561Z,84.00
2019-03-20T02:51:07.851Z,83.70
2019-03-20T02:53:37.167Z,83.40
2019-03-20T02:56:06.471Z,83.40
2019-03-20T02:58:35.788Z,83.30
2019-03-20T03:01:05.090Z,83.40
2019-03-20T03:03:34.401Z,83.30
2019-03-20T03:06:07.107Z,83.20
2019-03-20T03:08:35.051Z,83.20
2019-03-20T03:11:04.344Z,82.90
2019-03-20T03:13:33.647Z,83.50
2019-03-20T03:16:02.953Z,83.70
2019-03-20T03:18:32.343Z,83.90
2019-03-20T03:21:01.625Z,83.20
2019-03-20T03:23:30.979Z,83.30
2019-03-20T03:26:00.313Z,83.80
2019-03-20T03:28:29.716Z,83.70
2019-03-20T03:30:59.035Z,84.00
2019-03-20T03:33:28.335Z,83.90
2019-03-20T03:35:57.720Z,84.00
2019-03-20T03:38:27.010Z,84.00
2019-03-20T03:40:56.322Z,84.00
2019-03-20T03:43:25.647Z,83.90
2019-03-20T03:45:55.009Z,83.90
2019-03-20T03:48:24.312Z,83.90
2019-03-20T03:50:53.608Z,83.80
2019-03-20T03:53:23.980Z,83.70
2019-03-20T03:55:53.291Z,83.90
2019-03-20T03:58:22.592Z,83.70
2019-03-20T04:00:51.936Z,83.90
2019-03-20T04:03:21.245Z,84.00
2019-03-20T04:05:50.558Z,84.00
2019-03-20T04:08:19.852Z,84.00
2019-03-20T04:10:49.228Z,84.20
2019-03-20T04:13:18.616Z,84.40
2019-03-20T04:15:48.045Z,84.00
2019-03-20T04:18:17.415Z,83.60
2019-03-20T04:20:46.722Z,83.70
2019-03-20T04:23:16.121Z,83.90
2019-03-20T04:25:45.408Z,84.00
2019-03-20T04:28:14.704Z,84.20
2019-03-20T04:30:44.188Z,84.10
2019-03-20T04:33:13.477Z,83.90
2019-03-20T04:35:42.798Z,83.90
2019-03-20T04:38:12.099Z,84.00
2019-03-20T04:40:42.366Z,83.90
2019-03-20T04:43:11.658Z,83.90
2019-03-20T04:45:42.038Z,83.80
2019-03-20T04:48:12.406Z,83.80
2019-03-20T04:50:41.723Z,83.80
2019-03-20T04:53:11.051Z,84.30
2019-03-20T04:55:40.355Z,84.30
2019-03-20T04:58:09.720Z,84.20
2019-03-20T05:00:39.003Z,84.20
2019-03-20T05:03:08.298Z,84.70
2019-03-20T05:05:37.578Z,84.60
2019-03-20T05:08:06.874Z,84.70
2019-03-20T05:10:36.259Z,84.90
2019-03-20T05:13:05.560Z,84.80
2019-03-20T05:15:34.867Z,84.40
2019-03-20T05:18:04.159Z,84.40
2019-03-20T05:20:33.460Z,84.70
2019-03-20T05:23:02.764Z,84.40
2019-03-20T05:25:32.060Z,84.70
2019-03-20T05:28:01.360Z,84.40
2019-03-20T05:30:30.748Z,84.30
2019-03-20T05:33:00.042Z,84.20
2019-03-20T05:35:29.328Z,84.60
2019-03-20T05:37:58.644Z,84.50
2019-03-20T05:40:28.087Z,84.60
2019-03-20T05:43:04.835Z,84.80
2019-03-20T05:45:34.202Z,84.80
2019-03-20T05:48:03.614Z,84.70
2019-03-20T05:50:32.894Z,85.00
2019-03-20T05:53:02.203Z,84.70
2019-03-20T05:55:31.496Z,84.60
2019-03-20T05:58:00.801Z,84.60
2019-03-20T06:00:31.726Z,84.90
2019-03-20T06:03:01.054Z,84.90
2019-03-20T06:05:30.336Z,84.50
2019-03-20T06:07:59.630Z,84.80
2019-03-20T06:10:29.010Z,84.80
2019-03-20T06:12:58.315Z,84.40
2019-03-20T06:15:27.603Z,84.40
2019-03-20T06:17:56.912Z,84.40
2019-03-20T06:20:26.187Z,84.80
2019-03-20T06:22:55.494Z,85.10
2019-03-20T06:25:24.801Z,85.10
2019-03-20T06:27:54.103Z,84.90
2019-03-20T06:30:23.406Z,84.90
2019-03-20T06:32:52.709Z,84.70
2019-03-20T06:35:22.027Z,84.60
2019-03-20T06:37:51.321Z,84.70
2019-03-20T06:40:20.626Z,84.90
2019-03-20T06:42:49.998Z,85.10
2019-03-20T06:45:20.530Z,85.30
2019-03-20T06:47:49.826Z,85.20
2019-03-20T06:50:23.092Z,85.20
2019-03-20T06:52:52.638Z,85.10
2019-03-20T06:55:22.268Z,85.00
2019-03-20T06:57:51.556Z,84.90
2019-03-20T07:00:39.139Z,84.70
2019-03-20T07:03:31.566Z,84.70
2019-03-20T07:06:26.898Z,84.70
2019-03-20T07:09:17.109Z,85.10
2019-03-20T07:11:46.547Z,85.20
2019-03-20T07:14:19.244Z,85.80
2019-03-20T07:16:48.539Z,85.70
2019-03-20T07:19:17.875Z,85.30
2019-03-20T07:21:47.191Z,85.00
2019-03-20T07:24:16.491Z,84.90
2019-03-20T07:26:45.790Z,85.00
2019-03-20T07:29:15.106Z,84.90
2019-03-20T07:31:44.413Z,85.30
2019-03-20T07:34:13.721Z,85.00
2019-03-20T07:36:43.011Z,84.40
2019-03-20T07:39:12.329Z,84.30
2019-03-20T07:41:41.663Z,84.30
2019-03-20T07:44:11.018Z,84.30
2019-03-20T07:46:40.543Z,84.20
2019-03-20T07:49:09.869Z,83.80
2019-03-20T07:51:39.197Z,83.40
2019-03-20T07:54:08.499Z,83.40
2019-03-20T07:56:37.822Z,83.70
2019-03-20T07:59:07.117Z,83.60
2019-03-20T08:01:36.426Z,83.40
2019-03-20T08:04:05.831Z,83.30
2019-03-20T08:06:35.146Z,82.90
2019-03-20T08:09:06.774Z,83.30
2019-03-20T08:11:36.083Z,82.90
2019-03-20T08:14:05.538Z,82.90
2019-03-20T08:16:34.882Z,83.80
2019-03-20T08:19:04.432Z,83.40
2019-03-20T08:21:33.747Z,83.70
2019-03-20T08:24:03.039Z,82.90
2019-03-20T08:26:32.427Z,82.70
2019-03-20T08:29:01.850Z,82.10
2019-03-20T08:31:31.194Z,81.50
2019-03-20T08:34:00.497Z,81.40
2019-03-20T08:36:29.807Z,81.50
2019-03-20T08:39:00.162Z,81.40
2019-03-20T08:41:29.470Z,81.30
2019-03-20T08:43:58.754Z,80.90
2019-03-20T08:46:28.051Z,80.70
2019-03-20T08:48:57.343Z,79.60
2019-03-20T08:51:26.650Z,78.00
2019-03-20T08:53:56.376Z,77.60
2019-03-20T08:56:25.843Z,76.70
2019-03-20T08:58:55.164Z,76.60
2019-03-20T09:01:28.817Z,75.70
2019-03-20T09:03:55.438Z,75.20
2019-03-20T09:06:24.763Z,75.40
2019-03-20T09:08:54.063Z,74.90
2019-03-20T09:11:23.375Z,74.40
2019-03-20T09:13:52.669Z,74.50
2019-03-20T09:16:21.979Z,75.60
2019-03-20T09:18:51.279Z,76.70
2019-03-20T09:21:20.586Z,76.00
2019-03-20T09:23:49.882Z,75.30
2019-03-20T09:26:19.183Z,74.40
2019-03-20T09:28:48.501Z,73.80
2019-03-20T09:31:17.823Z,74.50
2019-03-20T09:33:47.254Z,74.60
2019-03-20T09:36:16.709Z,76.10
2019-03-20T09:38:45.990Z,75.90
2019-03-20T09:41:15.286Z,76.20
2019-03-20T09:43:44.603Z,76.30
2019-03-20T09:46:13.901Z,75.40
2019-03-20T09:48:43.261Z,75.20
2019-03-20T09:51:12.555Z,75.10
2019-03-20T09:53:42.834Z,75.50
2019-03-20T09:56:12.118Z,75.40
2019-03-20T09:58:41.426Z,74.40
2019-03-20T10:01:11.698Z,73.50
2019-03-20T10:03:41.056Z,72.50
2019-03-20T10:06:10.374Z,71.10
2019-03-20T10:08:39.674Z,73.00
2019-03-20T10:11:09.952Z,71.70
2019-03-20T10:13:39.260Z,67.90
2019-03-20T10:16:08.559Z,68.70
2019-03-20T10:18:37.879Z,66.90
2019-03-20T10:21:07.175Z,65.70
2019-03-20T10:23:42.475Z,63.10
2019-03-20T10:26:11.776Z,58.50
2019-03-20T10:28:41.083Z,53.00
2019-03-20T10:31:10.393Z,50.60
2019-03-20T10:33:39.690Z,51.10
2019-03-20T10:36:09.063Z,48.80
2019-03-20T10:38:38.391Z,48.60
2019-03-20T10:41:07.772Z,45.70
2019-03-20T10:43:38.165Z,48.10
2019-03-20T10:46:07.522Z,49.00
2019-03-20T10:48:36.823Z,50.60
2019-03-20T10:51:06.118Z,49.10
2019-03-20T10:53:35.433Z,48.20
2019-03-20T10:56:04.731Z,47.80
2019-03-20T10:58:35.115Z,47.30
2019-03-20T11:01:04.499Z,48.50
2019-03-20T11:03:33.807Z,47.10
2019-03-20T11:06:03.107Z,46.20
2019-03-20T11:08:32.427Z,46.20
2019-03-20T11:11:01.823Z,45.10
2019-03-20T11:13:31.251Z,47.00
2019-03-20T11:16:00.553Z,46.10
2019-03-20T11:18:29.857Z,45.50
2019-03-20T11:20:59.151Z,44.80
2019-03-20T11:23:28.462Z,44.30
2019-03-20T11:25:59.901Z,43.60
2019-03-20T11:28:28.810Z,43.70
2019-03-20T11:30:58.102Z,44.00
2019-03-20T11:33:27.406Z,44.00
2019-03-20T11:35:57.798Z,43.70
2019-03-20T11:38:27.106Z,43.70
2019-03-20T11:40:56.403Z,43.30
2019-03-20T11:43:25.701Z,44.00
2019-03-20T11:45:55.175Z,44.00
2019-03-20T11:48:24.510Z,43.70
2019-03-20T11:50:53.910Z,43.50
2019-03-20T11:53:23.215Z,46.20
2019-03-20T11:55:53.488Z,46.40
2019-03-20T11:58:22.787Z,49.00
2019-03-20T12:00:52.099Z,48.40
2019-03-20T12:03:21.399Z,47.50
2019-03-20T12:05:50.714Z,46.40
2019-03-20T12:08:21.636Z,45.90
2019-03-20T12:10:50.966Z,45.90
2019-03-20T12:13:20.267Z,46.40
2019-03-20T12:15:49.606Z,48.30
2019-03-20T12:18:18.898Z,48.50
2019-03-20T12:20:48.283Z,47.90
2019-03-20T12:23:17.585Z,49.00
2019-03-20T12:25:46.900Z,51.20
2019-03-20T12:28:16.198Z,50.90
2019-03-20T12:30:45.579Z,52.20
2019-03-20T12:33:14.869Z,51.20
2019-03-20T12:35:46.388Z,50.70
2019-03-20T12:38:15.723Z,52.70
2019-03-20T12:40:45.023Z,51.50
2019-03-20T12:43:14.360Z,52.30
2019-03-20T12:45:43.692Z,52.70
2019-03-20T12:48:19.264Z,51.80
2019-03-20T12:50:48.587Z,53.30
2019-03-20T12:53:26.786Z,52.10
2019-03-20T12:55:56.086Z,52.30
2019-03-20T12:58:25.387Z,52.00
2019-03-20T13:00:54.763Z,52.00
2019-03-20T13:03:24.171Z,52.40
2019-03-20T13:05:53.486Z,51.50
2019-03-20T13:08:22.868Z,51.70
2019-03-20T13:10:52.167Z,51.80
2019-03-20T13:13:21.487Z,54.20
2019-03-20T13:15:50.879Z,52.80
2019-03-20T13:18:20.191Z,52.90
2019-03-20T13:20:49.519Z,53.90
2019-03-20T13:23:31.837Z,55.50
2019-03-20T13:26:01.203Z,55.60
2019-03-20T13:28:30.515Z,54.00
2019-03-20T13:31:14.759Z,54.90
2019-03-20T13:33:45.037Z,55.40
2019-03-20T13:36:14.507Z,53.90
2019-03-20T13:38:43.906Z,53.50
2019-03-20T13:41:13.186Z,53.90
2019-03-20T13:43:42.530Z,54.90
2019-03-20T13:46:11.824Z,55.40
2019-03-20T13:48:41.123Z,55.10
2019-03-20T13:51:10.438Z,54.10
2019-03-20T13:53:39.745Z,53.00
2019-03-20T13:56:09.026Z,53.10
2019-03-20T13:58:38.345Z,53.00
2019-03-20T14:01:07.649Z,52.50
2019-03-20T14:03:36.993Z,52.50
2019-03-20T14:06:06.306Z,51.70
2019-03-20T14:08:35.622Z,51.60
2019-03-20T14:11:04.930Z,51.50
2019-03-20T14:13:35.215Z,51.90
2019-03-20T14:16:05.660Z,52.60
2019-03-20T14:18:34.955Z,52.90
2019-03-20T14:21:04.250Z,52.50
2019-03-20T14:23:33.542Z,52.40
2019-03-20T14:26:02.899Z,53.70
2019-03-20T14:28:32.212Z,53.20
2019-03-20T14:31:01.507Z,53.20
2019-03-20T14:33:30.859Z,53.10
2019-03-20T14:36:01.123Z,52.80
2019-03-20T14:38:30.422Z,52.80
2019-03-20T14:40:59.759Z,52.80
2019-03-20T14:43:29.123Z,52.90
2019-03-20T14:45:58.439Z,52.20
2019-03-20T14:48:27.730Z,52.30
2019-03-20T14:50:57.039Z,52.80
2019-03-20T14:53:26.354Z,53.10
2019-03-20T14:55:55.645Z,53.20
2019-03-20T14:58:24.963Z,53.10
2019-03-20T15:00:54.261Z,53.70
2019-03-20T15:03:23.562Z,54.30
2019-03-20T15:05:52.868Z,55.20
2019-03-20T15:08:22.178Z,54.80
2019-03-20T15:10:51.519Z,55.40
2019-03-20T15:13:20.811Z,53.50
2019-03-20T15:15:59.379Z,53.20
2019-03-20T15:18:29.815Z,52.60
2019-03-20T15:20:59.114Z,53.30
2019-03-20T15:23:28.416Z,53.30
2019-03-20T15:25:57.728Z,53.40
2019-03-20T15:28:27.111Z,53.60
2019-03-20T15:30:57.476Z,53.40
2019-03-20T15:33:26.766Z,53.50
2019-03-20T15:35:56.079Z,54.30
2019-03-20T15:38:25.375Z,54.40
2019-03-20T15:40:56.423Z,55.40
2019-03-20T15:43:25.940Z,55.50
2019-03-20T15:45:56.327Z,55.20
2019-03-20T15:48:25.634Z,55.40
2019-03-20T15:50:54.933Z,55.20
2019-03-20T15:53:24.234Z,55.00
2019-03-20T15:55:53.534Z,54.80
2019-03-20T15:58:22.846Z,55.00
2019-03-20T16:00:52.160Z,55.00
2019-03-20T16:03:27.559Z,55.20
2019-03-20T16:05:56.881Z,56.00
2019-03-20T16:08:26.183Z,55.20
2019-03-20T16:10:55.490Z,55.70
2019-03-20T16:13:24.790Z,56.60
2019-03-20T16:15:54.111Z,56.60
2019-03-20T16:18:23.398Z,57.10
2019-03-20T16:20:52.702Z,57.00
2019-03-20T16:23:22.003Z,57.20
2019-03-20T16:25:51.316Z,57.30
2019-03-20T16:28:20.606Z,57.90
2019-03-20T16:30:49.925Z,58.20
2019-03-20T16:33:19.241Z,58.30
2019-03-20T16:35:48.559Z,58.40
2019-03-20T16:38:17.860Z,58.40
2019-03-20T16:40:47.227Z,58.50
2019-03-20T16:43:17.496Z,58.90
2019-03-20T16:45:46.807Z,58.70
2019-03-20T16:48:16.103Z,59.70
2019-03-20T16:50:45.450Z,59.50
2019-03-20T16:53:14.734Z,60.00
2019-03-20T16:55:44.050Z,59.50
2019-03-20T16:58:13.359Z,59.80
2019-03-20T17:00:43.675Z,59.10
2019-03-20T17:03:12.974Z,59.30
2019-03-20T17:05:42.287Z,59.40
2019-03-20T17:08:12.643Z,60.10
2019-03-20T17:10:43.319Z,60.70
2019-03-20T17:13:12.623Z,60.60
2019-03-20T17:15:43.190Z,61.00
2019-03-20T17:18:12.562Z,60.70
2019-03-20T17:20:41.879Z,60.80
2019-03-20T17:23:11.195Z,61.20
2019-03-20T17:25:40.558Z,61.70
2019-03-20T17:28:10.039Z,62.70
2019-03-20T17:30:40.803Z,63.10
2019-03-20T17:33:10.127Z,63.00
2019-03-20T17:35:39.430Z,63.90
2019-03-20T17:38:08.746Z,64.10
2019-03-20T17:40:38.265Z,64.80
2019-03-20T17:43:07.731Z,64.70
2019-03-20T17:45:37.359Z,64.90
2019-03-20T17:48:06.674Z,65.30
2019-03-20T17:50:36.452Z,65.70
2019-03-20T17:53:06.998Z,66.30
2019-03-20T17:55:36.378Z,66.30
2019-03-20T17:58:05.876Z,66.60
2019-03-20T18:00:39.543Z,66.80
2019-03-20T18:03:09.264Z,66.90
2019-03-20T18:05:38.575Z,67.20
2019-03-20T18:08:08.640Z,67.80
2019-03-20T18:10:38.175Z,67.80
2019-03-20T18:13:07.921Z,67.90
2019-03-20T18:15:37.225Z,68.10
2019-03-20T18:18:07.788Z,68.70
2019-03-20T18:20:37.898Z,68.40
2019-03-20T18:23:07.926Z,68.20
2019-03-20T18:25:57.601Z,67.30
2019-03-20T18:28:26.872Z,67.50
2019-03-20T18:30:56.235Z,68.10
2019-03-20T18:33:25.503Z,68.30
2019-03-20T18:35:54.770Z,68.70
2019-03-20T18:38:24.056Z,67.80
2019-03-20T18:40:53.313Z,67.60
2019-03-20T18:43:22.672Z,68.00
2019-03-20T18:45:52.460Z,68.20
2019-03-20T18:48:21.802Z,68.90
2019-03-20T18:50:51.067Z,69.10
2019-03-20T18:53:20.353Z,69.30
2019-03-20T18:55:49.617Z,69.50
2019-03-20T18:58:18.901Z,69.60
2019-03-20T19:00:48.169Z,69.40
2019-03-20T19:03:22.945Z,69.10
2019-03-20T19:06:04.298Z,69.40
2019-03-20T19:08:33.653Z,69.40
2019-03-20T19:11:02.994Z,69.60
2019-03-20T19:13:32.340Z,69.60
2019-03-20T19:16:01.621Z,69.50
2019-03-20T19:18:30.933Z,70.00
2019-03-20T19:21:00.206Z,70.80
2019-03-20T19:23:29.494Z,71.20
2019-03-20T19:25:58.758Z,71.80
2019-03-20T19:28:28.082Z,71.60
2019-03-20T19:30:57.311Z,71.90
2019-03-20T19:33:26.577Z,71.40
2019-03-20T19:35:55.884Z,71.90
2019-03-20T19:38:34.530Z,72.40
2019-03-20T19:40:56.146Z,72.40
2019-03-20T19:43:25.402Z,72.30
2019-03-20T19:45:54.665Z,72.20
2019-03-20T19:48:23.931Z,72.50
2019-03-20T19:50:53.200Z,71.80
2019-03-20T19:53:22.461Z,71.20
2019-03-20T19:55:52.574Z,72.10
2019-03-20T19:58:21.839Z,72.60
2019-03-20T20:00:51.097Z,72.70
2019-03-20T20:03:20.393Z,72.90
2019-03-20T20:05:50.760Z,72.80
2019-03-20T20:08:20.021Z,73.20
2019-03-20T20:10:49.337Z,73.20
2019-03-20T20:13:18.597Z,73.40
2019-03-20T20:15:47.871Z,73.60
2019-03-20T20:18:17.133Z,73.60
2019-03-20T20:20:46.410Z,73.60
2019-03-20T20:23:15.737Z,73.30
2019-03-20T20:25:45.076Z,73.70
2019-03-20T20:28:14.343Z,74.10
2019-03-20T20:30:43.613Z,74.00
2019-03-20T20:33:12.943Z,74.10
2019-03-20T20:35:42.206Z,74.50
2019-03-20T20:38:11.485Z,74.70
2019-03-20T20:40:40.771Z,74.70
2019-03-20T20:43:11.098Z,74.80
2019-03-20T20:45:40.378Z,74.90
2019-03-20T20:48:09.638Z,74.70
2019-03-20T20:50:38.913Z,74.70
2019-03-20T20:53:08.186Z,74.90
2019-03-20T20:55:37.451Z,75.00
2019-03-20T20:58:06.711Z,75.20
2019-03-20T21:00:35.995Z,75.30
2019-03-20T21:03:05.252Z,75.10
2019-03-20T21:05:34.522Z,75.00
2019-03-20T21:08:03.781Z,75.10
2019-03-20T21:10:33.056Z,75.30
2019-03-20T21:13:02.314Z,75.30
2019-03-20T21:15:42.001Z,75.70
2019-03-20T21:18:19.871Z,75.80
2019-03-20T21:20:49.213Z,75.80
2019-03-20T21:23:39.606Z,76.10
2019-03-20T21:26:21.134Z,76.20
2019-03-20T21:29:26.898Z,76.70
2019-03-20T21:32:19.750Z,76.70
2019-03-20T21:35:25.204Z,76.50
2019-03-20T21:38:06.848Z,76.60
2019-03-20T21:40:39.191Z,76.80
2019-03-20T21:43:44.733Z,77.10
2019-03-20T21:46:28.777Z,77.00
2019-03-20T21:48:58.041Z,77.30
2019-03-20T21:51:27.313Z,77.20
2019-03-20T21:54:14.959Z,77.30
2019-03-20T21:56:49.921Z,77.10
2019-03-20T21:59:28.089Z,77.20
2019-03-20T22:02:33.577Z,77.20
2019-03-20T22:05:02.906Z,77.20
2019-03-20T22:07:32.184Z,77.40
2019-03-20T22:10:21.050Z,77.50
2019-03-20T22:12:53.400Z,77.50
2019-03-20T22:15:45.551Z,77.80
2019-03-20T22:18:32.782Z,77.70
2019-03-20T22:21:14.077Z,77.70
2019-03-20T22:23:55.220Z,77.90
2019-03-20T22:26:47.303Z,78.00
2019-03-20T22:29:23.835Z,78.20
2019-03-20T22:32:05.296Z,78.30
2019-03-20T22:34:37.639Z,78.60
2019-03-20T22:37:06.923Z,78.70
2019-03-20T22:40:02.715Z,78.50
2019-03-20T22:42:44.034Z,78.50
2019-03-20T22:45:38.443Z,78.30
2019-03-20T22:48:30.342Z,78.30
2019-03-20T22:54:17.289Z,78.50
2019-03-20T22:57:07.291Z,78.70
2019-03-20T22:59:37.526Z,78.70
2019-03-20T23:02:12.438Z,78.80
2019-03-20T23:04:45.147Z,78.80
2019-03-20T23:07:14.433Z,78.70
2019-03-20T23:09:43.724Z,78.80
2019-03-20T23:12:14.199Z,78.70
2019-03-20T23:14:43.474Z,78.80
2019-03-20T23:17:12.815Z,79.00
2019-03-20T23:19:43.243Z,79.00
2019-03-20T23:22:12.564Z,79.20
2019-03-20T23:24:41.850Z,79.30
2019-03-20T23:27:14.489Z,79.50
2019-03-20T23:29:43.776Z,79.70
2019-03-20T23:32:13.040Z,79.60
2019-03-20T23:34:42.309Z,79.50
2019-03-20T23:37:12.542Z,80.00
2019-03-20T23:39:41.833Z,80.60
2019-03-20T23:42:11.164Z,80.50
2019-03-20T23:44:40.499Z,80.40
2019-03-20T23:47:09.782Z,80.70
2019-03-20T23:49:39.041Z,81.00
2019-03-20T23:52:08.370Z,80.60
2019-03-20T23:54:44.912Z,79.90
2019-03-20T23:57:14.805Z,79.90
2019-03-20T23:59:44.198Z,80.00
